Weather at Tomanggong Airport

Public forecast

Using degrees Celsius for public forecast. Weather courtesy of forecast.io.

Closest aviation weather report (METAR) to Tomanggong Airport

Closest report is Sandakan Airport, 46.6 nm (86.4 km) NW.

2024/05/27 22:00 (retrieved 1 hour ago)

WBKS 272200Z VRB02KT 9999 FEW016 26/25 Q1008

Closest aviation forecast (TAF) to Tomanggong Airport

Closest forecast is Sandakan Airport, 46.6 nm (86.4 km) NW.

2024/05/27 18:00 (retrieved 5 hours ago)

TAF WBKS 271700Z 2718/2818 24005KT 9999 FEW016 TEMPO 2805/2809 5000 TSRA FEW012 FEW017CB